createdAt,value
2023-01-13T00:01:32.170Z,98568.47
2023-01-13T00:04:01.185Z,98566.19
2023-01-13T00:06:29.806Z,98572.53
2023-01-13T00:09:03.848Z,98564.75
2023-01-13T00:11:36.462Z,98559.28
2023-01-13T00:14:06.249Z,98550.50
2023-01-13T00:16:34.517Z,98551.72
2023-01-13T00:19:03.001Z,98553.16
2023-01-13T00:21:31.820Z,98554.78
2023-01-13T00:24:03.066Z,98545.81
2023-01-13T00:26:33.878Z,98548.66
2023-01-13T00:29:02.252Z,98549.69
2023-01-13T00:31:31.408Z,98565.38
2023-01-13T00:34:01.005Z,98557.03
2023-01-13T00:36:30.908Z,98559.88
2023-01-13T00:39:00.019Z,98559.06
2023-01-13T00:41:49.890Z,98554.59
2023-01-13T00:44:17.053Z,98542.34
2023-01-13T00:46:46.864Z,98536.09
2023-01-13T00:49:15.853Z,98533.66
2023-01-13T00:51:44.104Z,98535.69
2023-01-13T00:54:12.278Z,98527.94
2023-01-13T00:56:42.083Z,98526.94
2023-01-13T00:59:12.346Z,98527.94
2023-01-13T01:01:41.378Z,98526.94
2023-01-13T01:04:10.115Z,98535.88
2023-01-13T01:06:38.482Z,98524.69
2023-01-13T01:09:07.765Z,98537.72
2023-01-13T01:11:36.612Z,98523.66
2023-01-13T01:14:06.858Z,98520.03
2023-01-13T01:16:35.962Z,98525.34
2023-01-13T01:19:05.399Z,98526.56
2023-01-13T01:21:34.722Z,98530.44
2023-01-13T01:24:05.269Z,98524.75
2023-01-13T01:26:33.754Z,98523.94
2023-01-13T01:29:02.792Z,98524.53
2023-01-13T01:31:34.812Z,98516.59
2023-01-13T01:34:03.560Z,98511.13
2023-01-13T01:36:32.190Z,98515.81
2023-01-13T01:39:01.392Z,98514.59
2023-01-13T01:41:33.135Z,98515.00
2023-01-13T01:44:03.092Z,98514.81
2023-01-13T01:46:37.882Z,98509.72
2023-01-13T01:49:19.240Z,98516.44
2023-01-13T01:51:54.245Z,98517.47
2023-01-13T01:54:27.649Z,98520.50
2023-01-13T01:56:58.831Z,98518.25
2023-01-13T01:59:29.423Z,98508.47
2023-01-13T02:02:02.224Z,98516.44
2023-01-13T02:04:34.438Z,98506.25
2023-01-13T02:07:03.683Z,98504.41
2023-01-13T02:09:32.425Z,98500.13
2023-01-13T02:12:14.840Z,98493.63
2023-01-13T02:14:44.761Z,98489.72
2023-01-13T02:17:28.716Z,98482.81
2023-01-13T02:20:26.672Z,98476.09
2023-01-13T02:23:41.747Z,98476.25
2023-01-13T02:26:42.467Z,98475.25
2023-01-13T02:29:35.453Z,98473.63
2023-01-13T02:32:12.468Z,98468.78
2023-01-13T02:34:47.376Z,98467.97
2023-01-13T02:37:21.446Z,98470.16
2023-01-13T02:39:59.030Z,98461.19
2023-01-13T02:42:50.079Z,98461.59
2023-01-13T02:45:25.052Z,98451.41
2023-01-13T02:47:58.372Z,98453.66
2023-01-13T02:50:32.320Z,98445.91
2023-01-13T02:53:05.519Z,98434.50
2023-01-13T02:55:37.991Z,98425.34
2023-01-13T02:58:10.125Z,98432.88
2023-01-13T03:00:45.477Z,98437.97
2023-01-13T03:03:15.538Z,98428.41
2023-01-13T03:05:47.835Z,98427.59
2023-01-13T03:08:33.134Z,98421.47
2023-01-13T03:11:09.898Z,98429.41
2023-01-13T03:14:09.909Z,98422.47
2023-01-13T03:16:51.375Z,98425.34
2023-01-13T03:19:32.885Z,98427.84
2023-01-13T03:22:19.597Z,98420.91
2023-01-13T03:24:53.232Z,98428.44
2023-01-13T03:27:28.283Z,98421.34
2023-01-13T03:30:08.724Z,98411.00
2023-01-13T03:32:41.364Z,98415.44
2023-01-13T03:35:17.098Z,98412.97
2023-01-13T03:37:50.343Z,98396.28
2023-01-13T03:40:24.026Z,98409.09
2023-01-13T03:43:15.703Z,98416.25
2023-01-13T03:46:01.263Z,98421.53
2023-01-13T03:48:32.472Z,98414.84
2023-01-13T03:51:07.978Z,98404.03
2023-01-13T03:53:41.180Z,98394.72
2023-01-13T03:56:17.130Z,98381.47
2023-01-13T03:58:49.656Z,98384.13
2023-01-13T04:01:23.236Z,98384.13
2023-01-13T04:03:56.440Z,98373.75
2023-01-13T04:06:38.369Z,98371.31
2023-01-13T04:09:13.283Z,98366.22
2023-01-13T04:11:46.602Z,98347.53
2023-01-13T04:14:17.783Z,98338.59
2023-01-13T04:17:11.912Z,98346.75
2023-01-13T04:19:40.540Z,98351.81
2023-01-13T04:22:10.334Z,98349.38
2023-01-13T04:24:38.859Z,98355.50
2023-01-13T04:27:10.208Z,98353.25
2023-01-13T04:29:49.544Z,98344.25
2023-01-13T04:32:18.029Z,98325.16
2023-01-13T04:34:47.997Z,98330.59
2023-01-13T04:37:17.793Z,98327.13
2023-01-13T04:39:46.937Z,98311.53
2023-01-13T04:42:16.001Z,98303.59
2023-01-13T04:44:44.671Z,98296.06
2023-01-13T04:47:13.263Z,98294.44
2023-01-13T04:49:44.405Z,98277.81
2023-01-13T04:52:12.907Z,98280.41
2023-01-13T04:54:42.923Z,98274.72
2023-01-13T04:57:13.053Z,98277.75
2023-01-13T04:59:42.247Z,98284.88
2023-01-13T05:02:11.865Z,98270.47
2023-01-13T05:04:40.418Z,98257.06
2023-01-13T05:07:15.352Z,98263.56
2023-01-13T05:09:45.249Z,98253.38
2023-01-13T05:12:31.431Z,98247.06
2023-01-13T05:15:17.174Z,98255.00
2023-01-13T05:17:46.222Z,98242.00
2023-01-13T05:20:15.154Z,98236.53
2023-01-13T05:23:00.715Z,98235.88
2023-01-13T05:25:31.358Z,98225.31
2023-01-13T05:28:01.313Z,98235.69
2023-01-13T05:30:34.197Z,98224.88
2023-01-13T05:33:02.834Z,98215.75
2023-01-13T05:35:31.491Z,98208.81
2023-01-13T05:38:00.758Z,98224.00
2023-01-13T05:40:47.865Z,98215.88
2023-01-13T05:43:24.859Z,98209.38
2023-01-13T05:45:58.119Z,98221.38
2023-01-13T05:48:28.446Z,98192.91
2023-01-13T05:50:59.849Z,98199.38
2023-01-13T05:53:28.618Z,98201.00
2023-01-13T05:56:06.964Z,98199.38
2023-01-13T05:58:37.212Z,98192.03
2023-01-13T06:01:07.985Z,98183.47
2023-01-13T06:03:38.597Z,98194.47
2023-01-13T06:06:12.996Z,98203.03
2023-01-13T06:08:41.400Z,98203.03
2023-01-13T06:11:11.305Z,98194.47
2023-01-13T06:13:39.938Z,98188.75
2023-01-13T06:16:09.143Z,98186.25
2023-01-13T06:18:37.895Z,98174.06
2023-01-13T06:21:10.876Z,98177.25
2023-01-13T06:23:39.426Z,98187.63
2023-01-13T06:26:17.592Z,98180.50
2023-01-13T06:28:46.104Z,98190.41
2023-01-13T06:31:14.995Z,98179.81
2023-01-13T06:33:47.329Z,98179.63
2023-01-13T06:36:22.410Z,98180.00
2023-01-13T06:38:56.337Z,98179.78
2023-01-13T06:41:44.313Z,98178.75
2023-01-13T06:44:13.077Z,98175.69
2023-01-13T06:46:41.902Z,98175.00
2023-01-13T06:49:10.696Z,98183.75
2023-01-13T06:51:39.560Z,98172.75
2023-01-13T06:54:11.929Z,98176.41
2023-01-13T06:56:42.111Z,98185.97
2023-01-13T06:59:10.771Z,98176.78
2023-01-13T07:01:39.238Z,98183.94
2023-01-13T07:04:07.988Z,98181.41
2023-01-13T07:06:36.456Z,98172.81
2023-01-13T07:09:06.788Z,98176.50
2023-01-13T07:11:38.188Z,98188.88
2023-01-13T07:14:25.398Z,98177.69
2023-01-13T07:16:54.392Z,98185.44
2023-01-13T07:19:24.808Z,98200.63
2023-01-13T07:21:53.327Z,98184.59
2023-01-13T07:24:22.624Z,98189.22
2023-01-13T07:26:52.937Z,98185.34
2023-01-13T07:29:22.984Z,98180.41
2023-01-13T07:31:52.022Z,98177.34
2023-01-13T07:34:20.888Z,98175.28
2023-01-13T07:36:49.616Z,98182.75
2023-01-13T07:39:18.527Z,98184.97
2023-01-13T07:42:04.946Z,98180.94
2023-01-13T07:44:34.976Z,98176.97
2023-01-13T07:47:39.772Z,98176.97
2023-01-13T07:50:09.798Z,98180.88
2023-01-13T07:52:38.206Z,98183.94
2023-01-13T07:55:17.390Z,98181.31
2023-01-13T07:57:46.123Z,98186.00
2023-01-13T08:00:17.415Z,98173.44
2023-01-13T08:02:45.959Z,98184.25
2023-01-13T08:05:18.971Z,98191.19
2023-01-13T08:07:48.781Z,98200.38
2023-01-13T08:10:22.455Z,98194.78
2023-01-13T08:13:08.888Z,98205.72
2023-01-13T08:15:38.883Z,98197.63
2023-01-13T08:18:09.547Z,98212.50
2023-01-13T08:20:40.515Z,98204.78
2023-01-13T08:23:09.640Z,98228.75
2023-01-13T08:25:38.466Z,98226.06
2023-01-13T08:28:07.556Z,98225.38
2023-01-13T08:30:36.307Z,98224.50
2023-01-13T08:33:08.369Z,98226.28
2023-01-13T08:35:38.561Z,98227.97
2023-01-13T08:38:08.288Z,98228.56
2023-01-13T08:40:37.592Z,98227.53
2023-01-13T08:43:07.810Z,98235.41
2023-01-13T08:45:36.307Z,98235.34
2023-01-13T08:48:11.110Z,98239.16
2023-01-13T08:50:39.826Z,98241.38
2023-01-13T08:53:08.929Z,98241.38
2023-01-13T08:55:39.074Z,98255.16
2023-01-13T08:58:16.035Z,98257.13
2023-01-13T09:00:46.093Z,98258.00
2023-01-13T09:03:16.067Z,98253.22
2023-01-13T09:05:44.641Z,98256.16
2023-01-13T09:08:13.938Z,98263.78
2023-01-13T09:10:42.634Z,98261.19
2023-01-13T09:13:13.959Z,98252.38
2023-01-13T09:15:46.346Z,98255.41
2023-01-13T09:18:16.381Z,98253.34
2023-01-13T09:20:45.617Z,98246.16
2023-01-13T09:23:16.798Z,98239.69
2023-01-13T09:25:49.958Z,98244.84
2023-01-13T09:33:54.882Z,98245.06
2023-01-13T09:40:19.965Z,98262.44
2023-01-13T09:43:16.642Z,98261.84
2023-01-13T09:46:03.971Z,98263.69
2023-01-13T09:48:59.896Z,98271.81
2023-01-13T09:51:37.730Z,98265.47
2023-01-13T09:54:18.234Z,98261.34
2023-01-13T09:57:00.308Z,98260.03
2023-01-13T09:59:37.964Z,98249.44
2023-01-13T10:02:37.351Z,98265.06
2023-01-13T10:05:15.577Z,98255.03
2023-01-13T10:07:53.210Z,98263.47
2023-01-13T10:10:35.498Z,98257.69
2023-01-13T10:13:23.298Z,98249.03
2023-01-13T10:16:08.023Z,98259.13
2023-01-13T10:18:52.511Z,98256.47
2023-01-13T10:22:01.514Z,98255.75
2023-01-13T10:24:54.660Z,98254.84
2023-01-13T10:27:32.500Z,98261.88
2023-01-13T10:30:01.121Z,98251.84
2023-01-13T10:32:35.715Z,98248.84
2023-01-13T10:35:44.612Z,98255.66
2023-01-13T10:38:29.012Z,98258.31
2023-01-13T10:41:07.413Z,98250.69
2023-01-13T10:43:38.979Z,98263.50
2023-01-13T10:46:13.179Z,98256.69
2023-01-13T10:48:44.239Z,98259.72
2023-01-13T10:51:20.371Z,98247.22
2023-01-13T10:53:57.021Z,98258.88
2023-01-13T10:56:34.046Z,98249.75
2023-01-13T10:59:17.331Z,98253.00
2023-01-13T11:02:13.032Z,98248.56
2023-01-13T11:05:14.572Z,98252.41
2023-01-13T11:07:53.521Z,98254.13
2023-01-13T11:10:44.441Z,98249.38
2023-01-13T11:13:19.905Z,98252.69
2023-01-13T11:15:59.931Z,98255.50
2023-01-13T11:18:37.029Z,98257.91
2023-01-13T11:21:16.971Z,98253.19
2023-01-13T11:23:58.608Z,98252.50
2023-01-13T11:26:43.965Z,98239.69
2023-01-13T11:29:21.896Z,98247.19
2023-01-13T11:32:01.011Z,98245.47
2023-01-13T11:34:54.069Z,98259.22
2023-01-13T11:37:28.498Z,98247.78
2023-01-13T11:43:17.834Z,98249.53
2023-01-13T11:46:10.516Z,98242.03
2023-01-13T11:49:16.883Z,98231.03
2023-01-13T11:51:59.658Z,98250.78
2023-01-13T11:54:57.418Z,98247.22
2023-01-13T11:58:06.955Z,98248.59
2023-01-13T12:00:59.950Z,98254.72
2023-01-13T12:03:38.656Z,98250.44
2023-01-13T12:06:24.829Z,98255.75
2023-01-13T12:09:12.171Z,98253.34
2023-01-13T12:12:09.166Z,98243.41
2023-01-13T12:14:53.553Z,98251.25
2023-01-13T12:17:36.089Z,98242.94
2023-01-13T12:20:22.427Z,98247.34
2023-01-13T12:22:55.751Z,98254.50
2023-01-13T12:25:36.886Z,98246.75
2023-01-13T12:28:11.477Z,98249.41
2023-01-13T12:30:47.073Z,98242.81
2023-01-13T12:33:26.102Z,98256.91
2023-01-13T12:36:04.160Z,98249.63
2023-01-13T12:38:58.056Z,98241.34
2023-01-13T12:42:02.624Z,98244.09
2023-01-13T12:44:41.464Z,98253.22
2023-01-13T12:47:35.805Z,98259.81
2023-01-13T12:51:00.789Z,98251.25
2023-01-13T12:53:44.198Z,98243.50
2023-01-13T12:56:42.463Z,98254.50
2023-01-13T12:59:39.976Z,98251.03
2023-01-13T13:02:38.942Z,98250.00
2023-01-13T13:05:45.090Z,98250.78
2023-01-13T13:08:22.851Z,98254.63
2023-01-13T13:11:03.960Z,98248.59
2023-01-13T13:13:45.491Z,98248.16
2023-01-13T13:16:46.985Z,98242.59
2023-01-13T13:19:50.838Z,98237.06
2023-01-13T13:22:39.217Z,98240.19
2023-01-13T13:25:27.428Z,98239.50
2023-01-13T13:28:20.374Z,98247.13
2023-01-13T13:31:05.890Z,98242.84
2023-01-13T13:33:50.396Z,98250.22
2023-01-13T13:36:54.739Z,98232.44
2023-01-13T13:39:43.079Z,98245.41
2023-01-13T13:42:32.439Z,98242.28
2023-01-13T13:45:19.848Z,98250.00
2023-01-13T13:47:49.290Z,98250.00
2023-01-13T13:50:20.624Z,98242.03
2023-01-13T13:52:57.049Z,98248.16
2023-01-13T13:55:30.204Z,98246.53
2023-01-13T13:57:59.159Z,98244.34
2023-01-13T14:00:32.268Z,98248.88
2023-01-13T14:03:03.258Z,98248.50
2023-01-13T14:05:33.701Z,98248.97
2023-01-13T14:08:09.386Z,98252.88
2023-01-13T14:10:40.296Z,98247.00
2023-01-13T14:13:16.896Z,98252.56
2023-01-13T14:15:46.390Z,98252.88
2023-01-13T14:18:17.380Z,98247.25
2023-01-13T14:20:53.280Z,98257.97
2023-01-13T14:23:27.677Z,98255.31
2023-01-13T14:26:03.299Z,98258.19
2023-01-13T14:28:35.600Z,98260.03
2023-01-13T14:31:04.422Z,98253.91
2023-01-13T14:33:39.648Z,98256.25
2023-01-13T14:36:19.121Z,98259.34
2023-01-13T14:38:50.626Z,98263.50
2023-01-13T14:41:27.664Z,98258.31
2023-01-13T14:43:59.404Z,98254.94
2023-01-13T14:46:38.512Z,98262.56
2023-01-13T14:49:16.023Z,98262.41
2023-01-13T14:51:44.531Z,98265.06
2023-01-13T14:54:45.864Z,98262.66
2023-01-13T14:57:18.364Z,98263.09
2023-01-13T14:59:51.985Z,98260.44
2023-01-13T15:02:49.066Z,98264.84
2023-01-13T15:05:42.749Z,98261.97
2023-01-13T15:08:33.460Z,98261.16
2023-01-13T15:11:04.351Z,98267.06
2023-01-13T15:13:40.121Z,98270.53
2023-01-13T15:16:18.046Z,98263.94
2023-01-13T15:18:46.946Z,98262.31
2023-01-13T15:21:16.477Z,98259.19
2023-01-13T15:23:47.388Z,98269.16
2023-01-13T15:26:22.121Z,98271.34
2023-01-13T15:28:53.601Z,98260.16
2023-01-13T15:31:22.668Z,98260.16
2023-01-13T15:33:52.875Z,98265.00
2023-01-13T15:36:29.570Z,98263.16
2023-01-13T15:38:58.678Z,98263.38
2023-01-13T15:41:45.203Z,98269.84
2023-01-13T15:44:33.994Z,98267.19
2023-01-13T15:47:05.825Z,98271.25
2023-01-13T15:49:37.940Z,98265.94
2023-01-13T15:52:15.377Z,98259.81
2023-01-13T15:54:43.716Z,98261.44
2023-01-13T15:57:20.300Z,98253.34
2023-01-13T15:59:56.534Z,98251.03
2023-01-13T16:02:25.528Z,98253.34
2023-01-13T16:04:54.898Z,98254.94
2023-01-13T16:07:25.713Z,98257.03
2023-01-13T16:09:54.736Z,98254.94
2023-01-13T16:12:23.048Z,98246.97
2023-01-13T16:14:52.846Z,98246.16
2023-01-13T16:17:23.408Z,98246.16
2023-01-13T16:19:52.346Z,98250.34
2023-01-13T16:22:20.892Z,98250.78
2023-01-13T16:24:54.718Z,98248.94
2023-01-13T16:27:25.581Z,98244.06
2023-01-13T16:29:55.771Z,98253.88
2023-01-13T16:32:27.023Z,98240.72
2023-01-13T16:34:58.333Z,98259.44
2023-01-13T16:37:29.105Z,98258.16
2023-01-13T16:40:01.394Z,98257.34
2023-01-13T16:42:30.080Z,98251.81
2023-01-13T16:45:07.332Z,98251.81
2023-01-13T16:47:36.745Z,98256.09
2023-01-13T16:50:05.489Z,98248.13
2023-01-13T16:52:39.898Z,98251.59
2023-01-13T16:55:08.811Z,98250.78
2023-01-13T16:57:37.145Z,98243.25
2023-01-13T17:00:08.502Z,98251.00
2023-01-13T17:02:38.864Z,98246.16
2023-01-13T17:05:08.019Z,98244.31
2023-01-13T17:07:36.920Z,98243.72
2023-01-13T17:10:08.248Z,98239.47
2023-01-13T17:12:37.139Z,98235.75
2023-01-13T17:15:08.327Z,98232.88
2023-01-13T17:17:37.220Z,98237.16
2023-01-13T17:20:06.289Z,98231.84
2023-01-13T17:22:34.668Z,98228.03
2023-01-13T17:25:03.102Z,98235.53
2023-01-13T17:27:34.668Z,98241.31
2023-01-13T17:30:03.098Z,98236.22
2023-01-13T17:32:33.263Z,98235.53
2023-01-13T17:35:02.882Z,98241.06
2023-01-13T17:37:31.226Z,98236.22
2023-01-13T17:39:59.564Z,98232.53
2023-01-13T17:42:30.000Z,98214.84
2023-01-13T17:45:16.489Z,98228.03
2023-01-13T17:47:47.518Z,98220.28
2023-01-13T17:50:16.058Z,98217.50
2023-01-13T17:52:44.467Z,98226.88
2023-01-13T17:55:13.312Z,98217.50
2023-01-13T17:57:41.842Z,98209.53
2023-01-13T18:00:12.504Z,98211.97
2023-01-13T18:02:41.009Z,98223.75
2023-01-13T18:05:12.927Z,98216.25
2023-01-13T18:07:41.599Z,98216.38
2023-01-13T18:10:12.780Z,98206.78
2023-01-13T18:12:41.140Z,98215.31
2023-01-13T18:15:10.404Z,98210.25
2023-01-13T18:17:38.841Z,98207.47
2023-01-13T18:20:25.499Z,98206.66
2023-01-13T18:23:14.725Z,98196.03
2023-01-13T18:26:00.620Z,98202.59
2023-01-13T18:28:28.790Z,98193.13
2023-01-13T18:30:57.145Z,98198.00
2023-01-13T18:33:25.814Z,98193.47
2023-01-13T18:35:55.516Z,98196.13
2023-01-13T18:38:25.287Z,98196.38
2023-01-13T18:40:56.982Z,98204.22
2023-01-13T18:43:26.265Z,98191.97
2023-01-13T18:45:54.690Z,98197.53
2023-01-13T18:48:23.721Z,98191.75
2023-01-13T18:50:51.991Z,98201.00
2023-01-13T18:53:20.338Z,98196.50
2023-01-13T18:55:50.047Z,98191.97
2023-01-13T18:58:20.422Z,98201.13
2023-01-13T19:00:49.918Z,98189.69
2023-01-13T19:03:29.923Z,98199.88
2023-01-13T19:06:04.700Z,98203.88
2023-01-13T19:08:33.850Z,98204.13
2023-01-13T19:11:08.223Z,98203.66
2023-01-13T19:13:37.631Z,98192.56
2023-01-13T19:16:07.923Z,98202.97
2023-01-13T19:18:37.653Z,98199.06
2023-01-13T19:21:07.239Z,98195.38
2023-01-13T19:23:35.958Z,98190.50
2023-01-13T19:26:07.976Z,98201.50
2023-01-13T19:28:36.755Z,98199.41
2023-01-13T19:31:07.500Z,98196.50
2023-01-13T19:33:38.227Z,98199.97
2023-01-13T19:36:09.834Z,98197.56
2023-01-13T19:38:38.697Z,98210.59
2023-01-13T19:41:32.928Z,98197.56
2023-01-13T19:44:18.418Z,98195.94
2023-01-13T19:46:46.764Z,98185.56
2023-01-13T19:49:15.002Z,98183.13
2023-01-13T19:51:43.389Z,98181.94
2023-01-13T19:54:11.623Z,98183.56
2023-01-13T19:56:41.365Z,98183.34
2023-01-13T19:59:11.040Z,98190.72
2023-01-13T20:01:41.119Z,98181.72
2023-01-13T20:04:14.453Z,98184.59
2023-01-13T20:06:45.152Z,98186.22
2023-01-13T20:09:13.598Z,98178.72
2023-01-13T20:11:43.414Z,98185.06
2023-01-13T20:14:11.712Z,98182.75
2023-01-13T20:16:40.130Z,98182.75
2023-01-13T20:19:08.363Z,98176.06
2023-01-13T20:21:37.899Z,98178.38
2023-01-13T20:24:06.726Z,98183.56
2023-01-13T20:26:37.272Z,98170.16
2023-01-13T20:29:11.404Z,98159.44
2023-01-13T20:31:39.764Z,98170.50
2023-01-13T20:34:09.050Z,98173.63
2023-01-13T20:36:39.215Z,98166.31
2023-01-13T20:39:09.175Z,98170.84
2023-01-13T20:41:55.246Z,98166.00
2023-01-13T20:44:25.611Z,98163.78
2023-01-13T20:47:00.558Z,98163.19
2023-01-13T20:49:29.135Z,98176.03
2023-01-13T20:52:13.485Z,98165.03
2023-01-13T20:54:42.844Z,98175.22
2023-01-13T20:57:12.378Z,98174.41
2023-01-13T20:59:42.152Z,98178.44
2023-01-13T21:02:14.309Z,98170.13
2023-01-13T21:04:42.738Z,98166.44
2023-01-13T21:07:11.502Z,98173.94
2023-01-13T21:09:42.635Z,98173.72
2023-01-13T21:12:32.927Z,98171.63
2023-01-13T21:15:22.321Z,98179.16
2023-01-13T21:18:09.949Z,98169.34
2023-01-13T21:20:39.619Z,98170.50
2023-01-13T21:23:10.812Z,98167.63
2023-01-13T21:25:40.744Z,98170.63
2023-01-13T21:28:11.850Z,98173.63
2023-01-13T21:30:48.065Z,98173.97
2023-01-13T21:33:17.996Z,98179.06
2023-01-13T21:35:46.373Z,98184.16
2023-01-13T21:38:15.176Z,98182.09
2023-01-13T21:40:43.705Z,98171.47
2023-01-13T21:43:31.551Z,98177.56
2023-01-13T21:46:18.548Z,98174.13
2023-01-13T21:48:46.906Z,98173.31
2023-01-13T21:51:16.353Z,98174.66
2023-01-13T21:53:44.740Z,98162.19
2023-01-13T21:56:13.327Z,98168.31
2023-01-13T21:58:41.559Z,98174.22
2023-01-13T22:01:11.894Z,98169.34
2023-01-13T22:03:57.151Z,98169.94
2023-01-13T22:06:26.472Z,98173.63
2023-01-13T22:08:59.973Z,98166.38
2023-01-13T22:11:28.654Z,98175.03
2023-01-13T22:14:10.295Z,98174.78
2023-01-13T22:16:48.821Z,98170.06
2023-01-13T22:19:18.443Z,98168.44
2023-01-13T22:21:49.023Z,98172.50
2023-01-13T22:24:17.384Z,98170.88
2023-01-13T22:26:45.855Z,98180.47
2023-01-13T22:29:14.518Z,98180.69
2023-01-13T22:31:44.453Z,98170.88
2023-01-13T22:34:14.069Z,98183.13
2023-01-13T22:36:44.088Z,98178.25
2023-01-13T22:39:12.725Z,98180.09
2023-01-13T22:41:41.069Z,98185.41
2023-01-13T22:44:09.299Z,98183.34
2023-01-13T22:46:37.943Z,98188.66
2023-01-13T22:49:07.924Z,98190.28
2023-01-13T22:51:36.181Z,98186.81
2023-01-13T22:54:04.449Z,98184.38
2023-01-13T22:56:32.919Z,98189.69
2023-01-13T22:59:03.057Z,98188.88
2023-01-13T23:01:36.291Z,98182.75
2023-01-13T23:04:05.164Z,98185.41
2023-01-13T23:06:35.836Z,98190.50
2023-01-13T23:09:04.224Z,98184.16
2023-01-13T23:11:32.724Z,98182.31
2023-01-13T23:14:02.475Z,98188.78
2023-01-13T23:16:32.404Z,98190.63
2023-01-13T23:19:00.922Z,98186.69
2023-01-13T23:21:33.644Z,98187.97
2023-01-13T23:24:04.606Z,98193.75
2023-01-13T23:26:49.971Z,98190.16
2023-01-13T23:29:18.395Z,98192.81
2023-01-13T23:31:46.868Z,98193.63
2023-01-13T23:34:15.686Z,98186.91
2023-01-13T23:36:45.654Z,98195.81
2023-01-13T23:39:15.579Z,98195.22
2023-01-13T23:41:52.066Z,98192.56
2023-01-13T23:44:20.410Z,98202.16
2023-01-13T23:46:49.127Z,98194.78
2023-01-13T23:49:17.655Z,98190.28
2023-01-13T23:51:46.089Z,98184.16
2023-01-13T23:54:16.312Z,98181.84
2023-01-13T23:56:45.093Z,98182.63
2023-01-13T23:59:13.312Z,98185.28
